Time;durP1;ratioP1;P1;durP2;ratioP2;P2;SDS_P1;SDS_P2;PMS_P1;PMS_P2;Temp;Humidity;BMP_temperature;BMP_pressure;BME280_temperature;BME280_humidity;BME280_pressure;Samples;Min_cycle;Max_cycle;Signal;HPM_P1;HPM_P2
2021/10/04 00:00:28;;;;;;;;;;;;;;;;;;;;;
2021/10/04 00:03:04;;;;;;;20.33;16.10;;;17.00;99.90;;;;;;5051546;28;20392;-87
2021/10/04 00:05:29;;;;;;;24.38;17.55;;;17.00;99.90;;;;;;5034031;28;20732;-86
2021/10/04 00:08:09;;;;;;;17.25;15.45;;;17.00;99.90;;;;;;5013633;28;20897;-86
2021/10/04 00:10:41;;;;;;;17.57;14.97;;;16.90;99.90;;;;;;5013172;28;20386;-87
2021/10/04 00:13:24;;;;;;;16.25;13.93;;;17.00;99.90;;;;;;5013272;28;20777;-86
2021/10/04 00:15:55;;;;;;;16.10;14.50;;;17.00;99.90;;;;;;5014194;28;20389;-87
2021/10/04 00:18:34;;;;;;;14.73;13.32;;;17.00;99.90;;;;;;5029504;28;20420;-87
2021/10/04 00:21:00;;;;;;;14.23;12.75;;;17.00;99.90;;;;;;5032913;28;20470;-86
2021/10/04 00:23:28;;;;;;;13.30;12.00;;;17.00;99.90;;;;;;5033302;28;20459;-87
2021/10/04 00:25:56;;;;;;;12.60;11.30;;;17.10;99.90;;;;;;5033067;28;20383;-87
2021/10/04 00:28:24;;;;;;;10.45;9.45;;;17.10;99.90;;;;;;5046811;28;20453;-86
2021/10/04 00:30:50;;;;;;;10.23;9.02;;;17.10;99.90;;;;;;5013496;28;20386;-85
2021/10/04 00:33:15;;;;;;;11.23;8.88;;;17.10;99.90;;;;;;5012587;28;20381;-86
2021/10/04 00:35:41;;;;;;;10.05;8.70;;;17.10;99.90;;;;;;5030845;28;20945;-87
2021/10/04 00:38:10;;;;;;;9.93;8.60;;;17.20;99.90;;;;;;5022987;28;20712;-86
2021/10/04 00:40:41;;;;;;;13.10;9.10;;;17.30;99.90;;;;;;5032805;28;20379;-87
2021/10/04 00:43:06;;;;;;;11.15;8.48;;;17.20;99.90;;;;;;5050567;28;20452;-88
2021/10/04 00:45:40;;;;;;;9.60;7.87;;;17.10;99.90;;;;;;5033112;28;20464;-86
2021/10/04 00:48:11;;;;;;;13.87;8.23;;;17.20;99.90;;;;;;5030287;28;20384;-88
2021/10/04 00:50:40;;;;;;;8.55;7.30;;;17.20;99.90;;;;;;5030562;28;20373;-85
2021/10/04 00:53:13;;;;;;;7.90;6.80;;;17.10;99.90;;;;;;5030697;28;20444;-86
2021/10/04 00:55:45;;;;;;;10.73;6.40;;;17.10;99.90;;;;;;5030629;28;20369;-87
2021/10/04 00:58:11;;;;;;;10.77;5.60;;;17.10;99.90;;;;;;5011377;28;20394;-86
2021/10/04 01:00:37;;;;;;;7.20;5.35;;;17.00;99.90;;;;;;5049659;28;20403;-86
2021/10/04 01:03:09;;;;;;;7.57;5.03;;;17.00;99.90;;;;;;5031022;28;20384;-88
2021/10/04 01:05:40;;;;;;;6.50;5.25;;;17.00;99.90;;;;;;5049766;28;20939;-87
2021/10/04 01:08:09;;;;;;;5.88;5.03;;;17.00;99.90;;;;;;5031763;28;20388;-87
2021/10/04 01:10:43;;;;;;;7.88;5.57;;;17.00;99.90;;;;;;5050011;28;20368;-87
2021/10/04 01:13:12;;;;;;;8.13;5.95;;;16.90;99.90;;;;;;5030349;28;20377;-87
2021/10/04 01:15:57;;;;;;;7.30;5.45;;;16.90;99.90;;;;;;5014562;28;20947;-87
2021/10/04 01:18:23;;;;;;;5.63;4.93;;;16.80;99.90;;;;;;5031230;28;20371;-86
2021/10/04 01:21:09;;;;;;;5.67;4.10;;;16.80;99.90;;;;;;5032221;28;20379;-87
2021/10/04 01:23:38;;;;;;;5.18;4.30;;;16.70;99.90;;;;;;5016418;28;20376;-85
2021/10/04 01:26:04;;;;;;;4.03;3.65;;;16.70;99.90;;;;;;5043263;28;20376;-87
2021/10/04 01:28:32;;;;;;;3.72;3.05;;;16.60;99.90;;;;;;5031871;28;20379;-87
2021/10/04 01:31:01;;;;;;;3.60;2.70;;;16.60;99.90;;;;;;5024515;28;20419;-88
2021/10/04 01:33:32;;;;;;;7.47;2.78;;;16.50;99.90;;;;;;5012250;28;20862;-87
2021/10/04 01:36:01;;;;;;;3.10;1.70;;;16.50;99.90;;;;;;5012124;28;20377;-87
2021/10/04 01:38:32;;;;;;;5.68;2.00;;;16.50;99.90;;;;;;5029433;28;20369;-86
2021/10/04 01:41:04;;;;;;;4.75;1.50;;;16.40;99.90;;;;;;5012193;28;20467;-86
2021/10/04 01:43:30;;;;;;;5.15;1.60;;;16.40;99.90;;;;;;5020646;28;20963;-86
2021/10/04 01:45:58;;;;;;;3.10;1.37;;;16.30;99.90;;;;;;5030909;28;20383;-87
2021/10/04 01:48:24;;;;;;;1.50;1.17;;;16.30;99.90;;;;;;5049638;28;20414;-87
2021/10/04 01:50:53;;;;;;;3.00;1.23;;;16.30;99.90;;;;;;5049569;28;20403;-88
2021/10/04 01:53:22;;;;;;;2.45;1.50;;;16.30;99.90;;;;;;5032271;28;20387;-87
2021/10/04 01:55:50;;;;;;;1.25;1.00;;;16.30;99.90;;;;;;5023376;28;20382;-87
2021/10/04 01:58:18;;;;;;;1.95;1.00;;;16.30;99.90;;;;;;5029749;28;20848;-86
2021/10/04 02:00:46;;;;;;;2.25;1.13;;;16.30;99.90;;;;;;5030728;28;20402;-86
2021/10/04 02:03:23;;;;;;;1.33;1.20;;;16.30;99.90;;;;;;5011488;28;20373;-87
2021/10/04 02:05:49;;;;;;;3.22;1.23;;;16.30;99.90;;;;;;5012244;28;20388;-86
2021/10/04 02:08:15;;;;;;;1.55;1.10;;;16.30;99.90;;;;;;5029886;28;20373;-87
2021/10/04 02:10:50;;;;;;;3.20;1.20;;;16.30;99.90;;;;;;5046839;28;20376;-87
2021/10/04 02:13:27;;;;;;;4.53;1.38;;;16.20;99.90;;;;;;5022216;28;20526;-86
2021/10/04 02:16:25;;;;;;;1.23;0.90;;;16.20;99.90;;;;;;5047483;28;20418;-86
2021/10/04 02:18:50;;;;;;;4.93;1.30;;;16.20;99.90;;;;;;5053045;28;20405;-87
2021/10/04 02:21:31;;;;;;;6.07;1.20;;;16.20;99.90;;;;;;5053359;28;20455;-87
2021/10/04 02:23:57;;;;;;;3.10;1.02;;;16.20;99.90;;;;;;5034986;28;20376;-87
2021/10/04 02:26:22;;;;;;;1.02;0.90;;;16.10;99.90;;;;;;5031282;28;21478;-88
2021/10/04 02:28:51;;;;;;;1.33;0.90;;;16.20;99.90;;;;;;5033123;28;20383;-87
2021/10/04 02:32:21;;;;;;;1.20;0.80;;;16.10;99.90;;;;;;5032664;28;20397;-87
2021/10/04 02:35:07;;;;;;;4.70;1.20;;;15.90;99.90;;;;;;5031449;28;20377;-87
2021/10/04 02:37:33;;;;;;;3.25;0.82;;;15.90;99.90;;;;;;5015557;28;20369;-87
2021/10/04 02:39:59;;;;;;;1.40;0.95;;;15.90;99.90;;;;;;5015406;28;20381;-88
2021/10/04 02:42:25;;;;;;;0.87;0.80;;;15.90;99.90;;;;;;5015470;28;20379;-86
2021/10/04 02:45:23;;;;;;;1.30;0.90;;;16.00;99.90;;;;;;5029925;28;20392;-87
2021/10/04 02:47:55;;;;;;;2.67;0.90;;;16.00;99.90;;;;;;5015040;28;20398;-86
2021/10/04 02:50:24;;;;;;;4.43;1.10;;;15.90;99.90;;;;;;5015186;28;20378;-87
2021/10/04 02:52:50;;;;;;;1.58;0.90;;;15.90;99.90;;;;;;5040867;28;20404;-86
2021/10/04 02:55:16;;;;;;;1.00;0.70;;;15.80;99.90;;;;;;5052850;28;20371;-86
2021/10/04 02:57:45;;;;;;;3.23;0.90;;;15.80;99.90;;;;;;5052218;28;20719;-86
2021/10/04 03:00:14;;;;;;;3.03;0.80;;;15.80;99.90;;;;;;5053300;28;20379;-86
2021/10/04 03:02:43;;;;;;;0.77;0.70;;;15.80;99.90;;;;;;5026499;28;20396;-86
2021/10/04 03:05:09;;;;;;;0.80;0.60;;;15.80;99.90;;;;;;5016505;28;20850;-87
2021/10/04 03:07:39;;;;;;;1.57;0.83;;;15.90;99.90;;;;;;5014956;28;20381;-86
2021/10/04 03:10:09;;;;;;;2.00;1.00;;;15.90;99.90;;;;;;5014412;28;20393;-87
2021/10/04 03:12:35;;;;;;;1.30;0.80;;;15.80;99.90;;;;;;5034664;28;20395;-86
2021/10/04 03:15:01;;;;;;;1.80;0.80;;;15.70;99.90;;;;;;5019972;28;20475;-87
2021/10/04 03:17:30;;;;;;;1.23;0.80;;;15.70;99.90;;;;;;5014210;28;20397;-87
2021/10/04 03:19:55;;;;;;;1.15;0.50;;;15.70;99.90;;;;;;5032177;28;20380;-84
2021/10/04 03:22:21;;;;;;;0.77;0.60;;;15.70;99.90;;;;;;5014397;28;20382;-86
2021/10/04 03:24:47;;;;;;;0.85;0.65;;;15.60;99.90;;;;;;5032692;28;20756;-87
2021/10/04 03:27:22;;;;;;;1.70;0.70;;;15.40;99.90;;;;;;5019213;28;20430;-86
2021/10/04 03:30:03;;;;;;;0.50;0.50;;;15.40;99.90;;;;;;5052392;28;20376;-87
2021/10/04 03:32:38;;;;;;;0.80;0.63;;;15.40;99.90;;;;;;5052115;28;20396;-86
2021/10/04 03:35:26;;;;;;;1.52;0.60;;;15.40;99.90;;;;;;5022803;28;20412;-86
2021/10/04 03:37:52;;;;;;;0.52;0.50;;;15.40;99.90;;;;;;5030631;28;20377;-86
2021/10/04 03:40:18;;;;;;;3.90;0.60;;;15.40;99.90;;;;;;5014032;28;20444;-86
2021/10/04 03:42:45;;;;;;;1.40;0.70;;;15.30;99.90;;;;;;5046640;28;20463;-86
2021/10/04 03:45:17;;;;;;;1.75;0.70;;;15.20;99.90;;;;;;5033813;28;20388;-86
2021/10/04 03:47:47;;;;;;;2.83;0.63;;;15.20;99.90;;;;;;5033271;28;20471;-86
2021/10/04 03:50:16;;;;;;;1.45;0.63;;;15.20;99.90;;;;;;5033675;28;20468;-87
2021/10/04 03:52:42;;;;;;;2.03;0.70;;;15.20;99.90;;;;;;5024102;28;20394;-86
2021/10/04 03:55:10;;;;;;;1.23;0.70;;;15.30;99.90;;;;;;5031643;28;20374;-87
2021/10/04 03:57:37;;;;;;;1.30;0.60;;;15.30;99.90;;;;;;5013704;28;20438;-86
2021/10/04 04:00:07;;;;;;;6.65;1.02;;;15.20;99.90;;;;;;5013670;28;20381;-86
2021/10/04 04:02:35;;;;;;;1.25;0.70;;;15.20;99.90;;;;;;5013317;28;20385;-86
2021/10/04 04:05:01;;;;;;;1.13;0.77;;;15.30;99.90;;;;;;5031627;28;20381;-86
2021/10/04 04:07:52;;;;;;;3.80;1.10;;;15.20;99.90;;;;;;5025489;28;20391;-86
2021/10/04 04:10:33;;;;;;;3.55;1.23;;;15.20;99.90;;;;;;5031597;28;20430;-86
2021/10/04 04:12:59;;;;;;;3.17;1.10;;;15.20;99.90;;;;;;5033429;28;20407;-86
2021/10/04 04:15:25;;;;;;;2.10;0.80;;;15.20;99.90;;;;;;5050265;28;20387;-85
2021/10/04 04:18:12;;;;;;;3.83;1.33;;;15.10;99.90;;;;;;5050904;28;20378;-87
2021/10/04 04:21:09;;;;;;;1.00;0.90;;;15.10;99.90;;;;;;5032974;28;20765;-86
2021/10/04 04:23:41;;;;;;;2.00;0.90;;;15.10;99.90;;;;;;4953399;28;20437;-86
2021/10/04 04:28:52;;;;;;;1.58;0.80;;;15.00;99.90;;;;;;5033449;28;20375;-86
2021/10/04 04:31:21;;;;;;;1.40;0.87;;;15.00;99.90;;;;;;5050444;28;20798;-86
2021/10/04 04:33:47;;;;;;;9.68;1.70;;;15.00;99.90;;;;;;5032773;28;20378;-87
2021/10/04 04:36:12;;;;;;;1.35;0.95;;;15.00;99.90;;;;;;5051251;28;20372;-86
2021/10/04 04:38:38;;;;;;;2.30;0.87;;;15.00;99.90;;;;;;5033581;28;20924;-86
2021/10/04 04:41:04;;;;;;;1.70;0.90;;;15.00;99.90;;;;;;5019773;28;20466;-86
2021/10/04 04:43:32;;;;;;;3.10;0.83;;;15.00;99.90;;;;;;5012997;28;20381;-87
2021/10/04 04:46:11;;;;;;;1.67;0.88;;;14.90;99.90;;;;;;5037579;28;20373;-85
2021/10/04 04:48:52;;;;;;;0.70;0.70;;;15.00;99.90;;;;;;5028034;28;20372;-86
2021/10/04 04:51:18;;;;;;;1.63;0.80;;;15.00;99.90;;;;;;5050785;28;20897;-86
2021/10/04 04:53:45;;;;;;;1.40;0.70;;;15.00;99.90;;;;;;5033495;28;20499;-86
2021/10/04 04:56:23;;;;;;;3.75;0.70;;;15.00;99.90;;;;;;5032318;28;20390;-85
2021/10/04 04:59:06;;;;;;;1.63;0.77;;;15.00;99.90;;;;;;5051420;28;20422;-87
2021/10/04 05:01:32;;;;;;;3.13;0.93;;;15.00;99.90;;;;;;5052346;28;20382;-86
2021/10/04 05:04:38;;;;;;;;;;;;;;;;;;;;;
2021/10/04 05:07:04;;;;;;;4.80;1.10;;;15.00;99.90;;;;;;5041981;28;20895;-86
2021/10/04 05:09:32;;;;;;;1.52;0.80;;;15.00;99.90;;;;;;5027546;28;20494;-86
2021/10/04 05:12:01;;;;;;;1.20;0.80;;;15.00;99.90;;;;;;5032562;28;20392;-86
2021/10/04 05:14:26;;;;;;;1.50;0.85;;;15.00;99.90;;;;;;5050566;28;20360;-87
2021/10/04 05:16:58;;;;;;;1.67;0.80;;;15.00;99.90;;;;;;5032656;28;20371;-86
2021/10/04 05:19:39;;;;;;;1.05;0.70;;;15.00;99.90;;;;;;5032498;28;20425;-86
2021/10/04 05:22:05;;;;;;;3.00;0.98;;;15.00;99.90;;;;;;5032145;28;20407;-86
2021/10/04 05:24:31;;;;;;;1.67;0.88;;;15.00;99.90;;;;;;5050329;28;20503;-87
2021/10/04 05:27:08;;;;;;;3.47;1.00;;;15.00;99.90;;;;;;5031634;28;20387;-85
2021/10/04 05:29:45;;;;;;;1.65;1.00;;;15.00;99.90;;;;;;5048923;28;20442;-86
2021/10/04 05:32:11;;;;;;;1.90;0.90;;;15.00;99.90;;;;;;5049335;28;20399;-86
2021/10/04 05:34:37;;;;;;;3.97;1.00;;;14.90;99.90;;;;;;5050278;28;20372;-87
2021/10/04 05:37:02;;;;;;;1.33;1.00;;;14.90;99.90;;;;;;5032428;28;20414;-86
2021/10/04 05:39:28;;;;;;;1.83;0.95;;;15.00;99.90;;;;;;5032393;28;20402;-86
2021/10/04 05:41:54;;;;;;;1.10;1.00;;;15.00;99.90;;;;;;5031940;28;20387;-86
2021/10/04 05:44:20;;;;;;;0.83;0.83;;;15.00;99.90;;;;;;5033641;28;20372;-86
2021/10/04 05:46:45;;;;;;;2.60;1.27;;;15.00;99.90;;;;;;5036302;28;20380;-86
2021/10/04 05:49:11;;;;;;;2.75;0.93;;;15.00;99.90;;;;;;5053355;28;20936;-86
2021/10/04 05:51:37;;;;;;;1.83;1.10;;;15.00;99.90;;;;;;5036200;28;20398;-87
2021/10/04 05:54:02;;;;;;;1.48;1.10;;;14.90;99.90;;;;;;5035864;28;20360;-86
2021/10/04 05:56:28;;;;;;;1.03;0.90;;;14.90;99.90;;;;;;5035989;28;20482;-87
2021/10/04 05:59:04;;;;;;;1.67;0.90;;;15.00;99.90;;;;;;5036116;28;20471;-86
2021/10/04 06:01:34;;;;;;;2.85;1.08;;;15.00;99.90;;;;;;5035456;28;20383;-86
2021/10/04 06:04:05;;;;;;;1.02;0.93;;;15.00;99.90;;;;;;5035690;28;20376;-87
2021/10/04 06:06:39;;;;;;;1.40;0.90;;;15.10;99.90;;;;;;5035132;28;20372;-87
2021/10/04 06:09:11;;;;;;;6.30;1.30;;;15.10;99.90;;;;;;5035735;28;20381;-87
2021/10/04 06:15:17;;;;;;;3.10;1.00;;;15.10;99.90;;;;;;5015189;28;20896;-86
2021/10/04 06:17:45;;;;;;;2.23;1.00;;;15.20;99.90;;;;;;5036775;28;20458;-85
2021/10/04 06:20:12;;;;;;;1.02;0.88;;;15.20;99.90;;;;;;5058132;28;20450;-86
2021/10/04 06:23:26;;;;;;;1.67;1.00;;;15.20;99.90;;;;;;5057473;28;20425;-87
2021/10/04 06:25:56;;;;;;;1.60;0.93;;;15.20;99.90;;;;;;5062114;28;20723;-86
2021/10/04 06:28:31;;;;;;;1.40;0.93;;;15.30;99.90;;;;;;5041208;28;21684;-87
2021/10/04 06:31:02;;;;;;;3.22;1.40;;;15.30;99.90;;;;;;5058917;28;20378;-87
2021/10/04 06:33:29;;;;;;;2.00;1.10;;;15.30;99.90;;;;;;5033075;28;20461;-86
2021/10/04 06:35:55;;;;;;;4.07;1.15;;;15.30;99.90;;;;;;5031783;28;21029;-87
2021/10/04 06:38:20;;;;;;;2.08;1.20;;;15.40;99.90;;;;;;5041083;28;20476;-86
2021/10/04 06:40:46;;;;;;;3.00;1.03;;;15.40;99.90;;;;;;5022642;28;20380;-86
2021/10/04 06:43:12;;;;;;;2.17;0.80;;;15.40;99.90;;;;;;5053127;28;20408;-87
2021/10/04 06:45:37;;;;;;;1.70;1.03;;;15.50;99.90;;;;;;5048948;28;20408;-86
2021/10/04 06:48:03;;;;;;;2.78;1.08;;;15.50;99.90;;;;;;5047336;28;20391;-86
2021/10/04 06:50:32;;;;;;;1.00;0.90;;;15.50;99.90;;;;;;5034905;28;20369;-85
2021/10/04 06:53:01;;;;;;;2.13;1.20;;;15.50;99.90;;;;;;5024738;28;20405;-87
2021/10/04 06:55:34;;;;;;;1.45;1.00;;;15.50;99.90;;;;;;5013607;28;20374;-86
2021/10/04 06:58:00;;;;;;;1.70;0.90;;;15.50;99.90;;;;;;5047769;28;20408;-86
2021/10/04 07:00:40;;;;;;;5.28;1.13;;;15.60;99.90;;;;;;5014422;28;20449;-87
2021/10/04 07:03:05;;;;;;;2.22;1.10;;;15.70;99.90;;;;;;5032105;28;20436;-87
2021/10/04 07:05:31;;;;;;;2.30;1.10;;;15.70;99.90;;;;;;5014301;28;20875;-86
2021/10/04 07:08:00;;;;;;;8.70;1.47;;;15.80;99.90;;;;;;5014499;28;20390;-86
2021/10/04 07:10:28;;;;;;;1.42;0.82;;;15.80;99.90;;;;;;5035907;28;20881;-86
2021/10/04 07:12:57;;;;;;;3.58;1.15;;;15.80;99.90;;;;;;5034255;28;20431;-86
2021/10/04 07:15:22;;;;;;;1.45;0.98;;;15.80;99.90;;;;;;5046189;28;20387;-86
2021/10/04 07:17:48;;;;;;;2.40;1.10;;;15.80;99.90;;;;;;5014475;28;20370;-86
2021/10/04 07:20:14;;;;;;;2.55;1.13;;;15.80;99.90;;;;;;5015762;28;20385;-86
2021/10/04 07:22:41;;;;;;;7.13;1.50;;;15.80;99.90;;;;;;5051866;28;20376;-87
2021/10/04 07:25:08;;;;;;;3.70;1.40;;;15.80;99.90;;;;;;5034624;28;20372;-86
2021/10/04 07:27:33;;;;;;;4.40;1.98;;;15.90;99.90;;;;;;5045598;28;20393;-87
2021/10/04 07:30:04;;;;;;;3.42;1.77;;;15.90;99.90;;;;;;5022037;28;20725;-86
2021/10/04 07:32:33;;;;;;;7.18;1.83;;;15.90;99.90;;;;;;5024148;28;20496;-86
2021/10/04 07:35:06;;;;;;;3.87;1.60;;;16.00;99.90;;;;;;5036832;28;20368;-87
2021/10/04 07:37:32;;;;;;;6.85;2.65;;;16.10;99.90;;;;;;5032948;28;20386;-86
2021/10/04 07:39:57;;;;;;;3.63;1.90;;;16.10;99.90;;;;;;5046068;28;20382;-87
2021/10/04 07:42:30;;;;;;;3.50;1.80;;;16.10;99.90;;;;;;5039507;28;20383;-86
2021/10/04 07:44:56;;;;;;;3.30;1.70;;;16.10;99.90;;;;;;5043863;28;20396;-87
2021/10/04 07:47:22;;;;;;;3.10;1.52;;;16.10;99.90;;;;;;5030961;28;20390;-86
2021/10/04 07:49:50;;;;;;;3.13;1.40;;;16.10;99.90;;;;;;5031678;28;20365;-86
2021/10/04 07:52:16;;;;;;;3.53;1.40;;;16.20;99.90;;;;;;5013471;28;21038;-86
2021/10/04 07:54:42;;;;;;;2.30;1.30;;;16.30;99.90;;;;;;5025291;28;20375;-86
2021/10/04 07:57:12;;;;;;;1.55;1.13;;;16.40;99.90;;;;;;5016268;28;20814;-86
2021/10/04 07:59:39;;;;;;;3.70;1.30;;;16.50;99.90;;;;;;5028574;28;20793;-87
2021/10/04 08:02:06;;;;;;;4.78;1.50;;;16.60;99.90;;;;;;5033015;28;20379;-87
2021/10/04 08:04:39;;;;;;;4.07;1.52;;;16.60;99.90;;;;;;5031245;28;20412;-86
2021/10/04 08:07:08;;;;;;;6.60;1.40;;;16.70;99.90;;;;;;5032913;28;20818;-86
2021/10/04 08:09:43;;;;;;;2.15;1.20;;;16.60;99.90;;;;;;5033428;28;20772;-87
2021/10/04 08:12:09;;;;;;;3.30;1.30;;;16.50;99.90;;;;;;5050685;28;20384;-86
2021/10/04 08:14:36;;;;;;;3.92;1.40;;;16.50;99.90;;;;;;5040201;28;20785;-86
2021/10/04 08:17:05;;;;;;;2.00;1.20;;;16.40;99.90;;;;;;5033040;28;20380;-86
2021/10/04 08:19:31;;;;;;;3.35;1.35;;;16.40;99.90;;;;;;5032822;28;20731;-86
2021/10/04 08:22:00;;;;;;;4.88;1.40;;;16.40;99.90;;;;;;5033343;28;20394;-86
2021/10/04 08:24:26;;;;;;;6.53;1.45;;;16.40;99.90;;;;;;5017825;28;20385;-86
2021/10/04 08:27:24;;;;;;;3.23;1.30;;;16.40;99.90;;;;;;5013283;28;20710;-86
2021/10/04 08:29:50;;;;;;;3.30;1.40;;;16.30;99.90;;;;;;5033047;28;20418;-86
2021/10/04 08:32:16;;;;;;;2.10;1.20;;;16.20;99.90;;;;;;5033136;28;20423;-86
2021/10/04 08:34:47;;;;;;;5.05;1.40;;;16.20;99.90;;;;;;5025589;28;20373;-86
2021/10/04 08:37:13;;;;;;;3.95;1.60;;;16.10;99.90;;;;;;5012946;28;20382;-86
2021/10/04 08:39:38;;;;;;;4.38;1.50;;;16.20;99.90;;;;;;5030406;28;20380;-87
2021/10/04 08:42:05;;;;;;;6.57;1.50;;;16.10;99.90;;;;;;5013278;28;20459;-87
2021/10/04 08:44:35;;;;;;;5.93;2.25;;;16.10;99.90;;;;;;5013126;28;20389;-86
2021/10/04 08:47:07;;;;;;;3.35;1.63;;;16.20;99.90;;;;;;5013617;28;20862;-86
2021/10/04 08:49:35;;;;;;;2.05;1.23;;;16.20;99.90;;;;;;5030567;28;20409;-86
2021/10/04 08:52:07;;;;;;;3.83;1.60;;;16.20;99.90;;;;;;5013220;28;20401;-86
2021/10/04 08:54:44;;;;;;;5.75;1.40;;;16.10;99.90;;;;;;5013086;28;20385;-85
2021/10/04 08:57:28;;;;;;;2.28;1.40;;;16.10;99.90;;;;;;5029955;28;20389;-86
2021/10/04 09:00:00;;;;;;;3.22;1.75;;;16.10;99.90;;;;;;5015787;28;20424;-86
2021/10/04 09:02:58;;;;;;;2.97;2.35;;;16.10;99.90;;;;;;5032616;28;20376;-86
2021/10/04 09:05:44;;;;;;;;;;;;;;;;;;;;;
2021/10/04 09:09:07;;;;;;;2.03;1.13;;;16.30;99.90;;;;;;5045780;28;20439;-86
2021/10/04 09:11:42;;;;;;;2.80;1.10;;;16.50;99.90;;;;;;5031834;28;20446;-86
2021/10/04 09:14:26;;;;;;;3.33;1.10;;;16.60;99.90;;;;;;5030527;28;20439;-86
2021/10/04 09:17:11;;;;;;;3.58;1.33;;;16.80;99.90;;;;;;5012682;28;20980;-85
2021/10/04 09:19:59;;;;;;;2.77;1.30;;;16.70;99.90;;;;;;5011434;28;20412;-87
2021/10/04 09:22:24;;;;;;;3.83;1.30;;;16.60;99.90;;;;;;5022013;28;20387;-86
2021/10/04 09:24:59;;;;;;;1.75;1.40;;;16.60;99.90;;;;;;5032235;28;20383;-88
2021/10/04 09:27:38;;;;;;;2.22;1.50;;;16.60;99.90;;;;;;5031970;28;20437;-86
2021/10/04 09:30:17;;;;;;;2.35;1.27;;;16.60;99.90;;;;;;5032328;28;20927;-86
2021/10/04 09:32:46;;;;;;;2.92;1.17;;;16.60;99.90;;;;;;5019237;28;20883;-86
2021/10/04 09:35:22;;;;;;;6.03;1.52;;;16.60;99.90;;;;;;5030104;28;20377;-87
2021/10/04 09:37:52;;;;;;;2.78;1.50;;;16.70;99.90;;;;;;5012351;28;20389;-87
2021/10/04 09:40:24;;;;;;;3.67;1.20;;;16.70;99.90;;;;;;5029766;28;20456;-86
2021/10/04 09:42:50;;;;;;;2.80;1.00;;;16.70;99.90;;;;;;5026997;28;20387;-87
2021/10/04 09:45:15;;;;;;;3.10;1.10;;;16.60;99.90;;;;;;5032359;28;20371;-87
2021/10/04 09:47:49;;;;;;;2.17;1.15;;;16.60;99.90;;;;;;5032091;28;20383;-87
2021/10/04 09:50:17;;;;;;;2.65;1.27;;;16.50;99.90;;;;;;5030411;28;20380;-87
2021/10/04 09:52:45;;;;;;;2.95;1.38;;;16.50;99.90;;;;;;5012242;28;20397;-87
2021/10/04 09:55:35;;;;;;;2.73;1.13;;;16.50;99.90;;;;;;5028900;28;20386;-87
2021/10/04 09:58:06;;;;;;;5.57;2.13;;;16.60;99.90;;;;;;5030505;28;20470;-87
2021/10/04 10:01:02;;;;;;;8.70;1.90;;;16.60;99.90;;;;;;5028392;28;20388;-87
2021/10/04 10:03:43;;;;;;;3.97;1.33;;;16.50;99.90;;;;;;5012704;28;20747;-86
2021/10/04 10:06:09;;;;;;;4.50;2.58;;;16.60;99.90;;;;;;5011857;28;20385;-86
2021/10/04 10:09:01;;;;;;;6.87;1.73;;;16.70;99.90;;;;;;5048374;28;20742;-86
2021/10/04 10:11:50;;;;;;;5.70;1.55;;;16.70;99.90;;;;;;5030853;28;20392;-86
2021/10/04 10:14:15;;;;;;;2.35;1.40;;;16.80;99.90;;;;;;5048365;28;20386;-86
2021/10/04 10:17:11;;;;;;;8.35;2.00;;;16.90;99.90;;;;;;5018812;28;20483;-87
2021/10/04 10:19:44;;;;;;;2.13;1.25;;;17.00;99.90;;;;;;5035231;28;20420;-87
2021/10/04 10:22:22;;;;;;;3.63;1.40;;;17.20;99.90;;;;;;5049439;28;20372;-87
2021/10/04 10:24:58;;;;;;;7.85;1.50;;;17.20;99.90;;;;;;5032443;28;20801;-84
2021/10/04 10:27:43;;;;;;;2.65;1.40;;;17.00;99.90;;;;;;5034979;28;20792;-87
2021/10/04 10:30:33;;;;;;;5.77;1.57;;;16.90;99.90;;;;;;5032551;28;20383;-85
2021/10/04 10:33:05;;;;;;;3.10;1.27;;;16.90;99.90;;;;;;5034936;28;20399;-86
2021/10/04 10:35:48;;;;;;;4.72;1.63;;;16.90;99.90;;;;;;5052842;28;20813;-87
2021/10/04 10:38:56;;;;;;;3.55;1.45;;;16.90;99.90;;;;;;5039382;28;20366;-86
2021/10/04 10:41:22;;;;;;;7.22;1.83;;;16.90;99.90;;;;;;5030418;28;20737;-87
2021/10/04 10:44:06;;;;;;;3.17;1.27;;;16.90;99.90;;;;;;5023320;28;20443;-87
2021/10/04 10:46:55;;;;;;;5.53;1.40;;;16.90;99.90;;;;;;5046846;28;20394;-87
2021/10/04 10:49:58;;;;;;;4.68;1.50;;;16.80;99.90;;;;;;5052822;28;20372;-87
2021/10/04 10:52:47;;;;;;;2.67;1.50;;;16.80;99.90;;;;;;5034044;28;20396;-86
2021/10/04 10:55:19;;;;;;;3.67;1.60;;;16.70;99.90;;;;;;5031941;28;20430;-87
2021/10/04 10:57:57;;;;;;;6.33;1.93;;;16.60;99.90;;;;;;5034307;28;20384;-88
2021/10/04 11:00:34;;;;;;;7.20;1.80;;;16.60;99.90;;;;;;5023742;28;20370;-88
2021/10/04 11:03:22;;;;;;;4.00;1.77;;;16.60;99.90;;;;;;5029879;28;20380;-87
2021/10/04 11:05:57;;;;;;;4.05;1.70;;;16.50;99.90;;;;;;5032777;28;20905;-87
2021/10/04 11:08:28;;;;;;;2.72;1.58;;;16.50;99.90;;;;;;5034125;28;20383;-87
2021/10/04 11:10:57;;;;;;;3.80;1.65;;;16.50;99.90;;;;;;5033631;28;20473;-87
2021/10/04 11:13:43;;;;;;;3.20;1.70;;;16.50;99.90;;;;;;5034234;28;20951;-87
2021/10/04 11:16:08;;;;;;;6.07;2.17;;;16.60;99.90;;;;;;5034399;28;20368;-87
2021/10/04 11:18:47;;;;;;;4.50;1.90;;;16.50;99.90;;;;;;5052417;28;20433;-87
2021/10/04 11:21:22;;;;;;;6.32;2.10;;;16.50;99.90;;;;;;5034115;28;20371;-88
2021/10/04 11:24:09;;;;;;;4.30;1.70;;;16.40;99.90;;;;;;5051539;28;20451;-87
2021/10/04 11:26:47;;;;;;;9.07;2.42;;;16.40;99.90;;;;;;5034098;28;20364;-87
2021/10/04 11:29:12;;;;;;;5.68;1.70;;;16.60;99.90;;;;;;5034070;28;20387;-87
2021/10/04 11:31:44;;;;;;;4.60;1.70;;;16.70;99.90;;;;;;5033826;28;20391;-87
2021/10/04 11:34:26;;;;;;;4.53;1.70;;;16.70;99.90;;;;;;5034047;28;20434;-86
2021/10/04 11:36:54;;;;;;;4.55;1.80;;;16.70;99.90;;;;;;5034028;28;20372;-87
2021/10/04 11:39:26;;;;;;;2.97;1.75;;;16.80;99.90;;;;;;5034114;28;20382;-87
2021/10/04 11:41:58;;;;;;;3.90;1.80;;;16.80;99.90;;;;;;5033227;28;20413;-87
2021/10/04 11:44:39;;;;;;;5.80;1.77;;;16.90;99.90;;;;;;5033619;28;20383;-87
2021/10/04 11:47:09;;;;;;;5.28;2.00;;;16.90;99.90;;;;;;5051493;28;20846;-87
2021/10/04 11:49:53;;;;;;;5.78;2.30;;;16.90;99.90;;;;;;5033631;28;20372;-87
2021/10/04 11:52:20;;;;;;;4.78;2.20;;;16.80;99.90;;;;;;5033480;28;20801;-86
2021/10/04 11:54:53;;;;;;;4.97;2.67;;;16.70;99.90;;;;;;5051503;28;20364;-87
2021/10/04 11:57:21;;;;;;;6.35;2.60;;;16.70;99.90;;;;;;5033801;28;20478;-87
2021/10/04 11:59:55;;;;;;;10.68;3.38;;;16.60;99.90;;;;;;5051602;28;20367;-87
2021/10/04 12:02:33;;;;;;;5.57;3.28;;;16.60;99.90;;;;;;5033403;28;20931;-87
2021/10/04 12:05:19;;;;;;;5.18;3.00;;;16.60;99.90;;;;;;5033051;28;20879;-87
2021/10/04 12:08:17;;;;;;;5.05;2.58;;;16.60;99.90;;;;;;5057227;28;20384;-87
2021/10/04 12:10:44;;;;;;;4.93;2.58;;;16.70;99.90;;;;;;5060639;28;20829;-87
2021/10/04 12:13:46;;;;;;;13.50;3.05;;;16.70;99.90;;;;;;5040790;28;20897;-87
2021/10/04 12:16:16;;;;;;;13.40;3.13;;;16.60;99.90;;;;;;5060676;28;20427;-87
2021/10/04 12:19:10;;;;;;;4.18;2.50;;;16.60;99.90;;;;;;5058313;28;20421;-87
2021/10/04 12:22:43;;;;;;;12.52;3.10;;;16.60;99.90;;;;;;5031558;28;20372;-87
2021/10/04 12:25:30;;;;;;;4.57;2.88;;;16.80;99.90;;;;;;5030766;28;20380;-87
2021/10/04 12:28:15;;;;;;;4.53;2.20;;;16.80;99.90;;;;;;5055154;28;20374;-87
2021/10/04 12:30:44;;;;;;;4.95;2.30;;;16.80;99.90;;;;;;5039021;28;20400;-87
2021/10/04 12:33:40;;;;;;;5.65;2.60;;;16.80;99.90;;;;;;5043292;28;20947;-86
2021/10/04 12:36:18;;;;;;;6.50;2.30;;;16.70;99.90;;;;;;5039651;28;20387;-86
2021/10/04 12:39:19;;;;;;;6.35;2.30;;;16.60;99.90;;;;;;5042122;28;20384;-86
2021/10/04 12:41:56;;;;;;;13.82;3.45;;;16.50;99.90;;;;;;5014951;28;20943;-86
2021/10/04 12:44:27;;;;;;;4.22;2.47;;;16.50;99.90;;;;;;5041070;28;20916;-87
2021/10/04 12:47:13;;;;;;;5.10;2.30;;;16.50;99.90;;;;;;5037555;28;20386;-86
2021/10/04 12:49:56;;;;;;;5.03;2.60;;;16.40;99.90;;;;;;5040090;28;20470;-86
2021/10/04 12:52:25;;;;;;;4.80;2.70;;;16.30;99.90;;;;;;5040055;28;20791;-87
2021/10/04 12:54:53;;;;;;;6.10;3.80;;;16.30;99.90;;;;;;5040393;28;20370;-86
2021/10/04 12:57:32;;;;;;;7.57;5.10;;;16.30;99.90;;;;;;5052040;28;20388;-87
2021/10/04 13:00:09;;;;;;;9.13;5.55;;;16.30;99.90;;;;;;5012590;28;20385;-86
2021/10/04 13:03:02;;;;;;;21.48;6.80;;;16.30;99.90;;;;;;5041080;28;20382;-87
2021/10/04 13:05:27;;;;;;;7.78;3.55;;;16.40;99.90;;;;;;5051374;28;20432;-87
2021/10/04 13:07:53;;;;;;;7.20;3.83;;;16.40;99.90;;;;;;5069080;28;20366;-87
2021/10/04 13:10:19;;;;;;;6.13;3.13;;;16.40;99.90;;;;;;5037056;28;20613;-87
2021/10/04 13:13:42;;;;;;;;;;;;;;;;;;;;;
2021/10/04 13:15:39;;;;;;;10.90;3.95;;;16.40;99.90;;;;;;5026653;28;20730;-87
2021/10/04 13:21:25;;;;;;;;;;;;;;;;;;;;;
2021/10/04 13:24:25;;;;;;;7.28;3.53;;;16.40;99.90;;;;;;5059212;28;20412;-87
2021/10/04 13:26:59;;;;;;;5.88;3.22;;;16.50;99.90;;;;;;5055951;28;20424;-86
2021/10/04 13:29:25;;;;;;;6.70;3.50;;;16.50;99.90;;;;;;5038101;28;20794;-87
2021/10/04 13:31:50;;;;;;;6.68;3.63;;;16.50;99.90;;;;;;5031986;28;20483;-87